< < Back
Terminal Aerodrome Forecast


Current Version              Previous Versions:   1  2  3  4  5  6  7  8  9  

Terminal Aerodrome Forecast

271
FTUS42 KGSP 031056 AAA
TAFAND
TAF AMD
KAND 031056Z 0311/0406 06010KT P6SM OVC025
      TEMPO 0313/0315 6SM -RADZ BKN008 OVC014
     FM031500 06009KT 5SM -RA OVC008
     FM031600 06006KT 4SM -RA OVC005
     FM040000 07004KT 3SM BR OVC003=

Latest METAR

899
SAUS70 KWBC 031300
MTRAND
METAR KAND 031156Z AUTO 04008KT 10SM OVC019 09/00 A3027 RMK AO2 SLP248
60000 T00890000 10133 20089 53013


USA.gov is the U.S. government's official web portal to all federal, state and local government web resources and services.